createdAt,value
2022-07-31T00:01:06.382Z,100405.95
2022-07-31T00:03:35.663Z,100409.91
2022-07-31T00:06:04.879Z,100409.73
2022-07-31T00:08:34.243Z,100405.80
2022-07-31T00:11:03.384Z,100401.59
2022-07-31T00:13:57.541Z,100402.22
2022-07-31T00:16:03.654Z,100411.66
2022-07-31T00:18:35.327Z,100411.66
2022-07-31T00:21:04.916Z,100405.73
2022-07-31T00:23:34.181Z,100396.66
2022-07-31T00:26:03.411Z,100394.90
2022-07-31T00:28:32.575Z,100386.89
2022-07-31T00:31:01.776Z,100390.59
2022-07-31T00:33:31.181Z,100386.70
2022-07-31T00:36:00.378Z,100382.20
2022-07-31T00:38:29.573Z,100386.53
2022-07-31T00:40:59.202Z,100384.64
2022-07-31T00:43:30.677Z,100384.03
2022-07-31T00:45:59.628Z,100382.80
2022-07-31T00:48:28.924Z,100382.80
2022-07-31T00:50:59.052Z,100384.92
2022-07-31T00:53:28.244Z,100379.62
2022-07-31T00:55:57.887Z,100367.98
2022-07-31T00:58:27.310Z,100371.51
2022-07-31T01:00:56.584Z,100371.46
2022-07-31T01:03:25.753Z,100362.19
2022-07-31T01:05:54.950Z,100372.52
2022-07-31T01:08:24.149Z,100364.73
2022-07-31T01:10:59.214Z,100357.82
2022-07-31T01:13:40.461Z,100352.63
2022-07-31T01:16:12.529Z,100356.05
2022-07-31T01:18:43.605Z,100352.98
2022-07-31T01:21:15.633Z,100363.26
2022-07-31T01:23:55.188Z,100356.02
2022-07-31T01:26:46.901Z,100347.78
2022-07-31T01:29:18.991Z,100344.91
2022-07-31T01:31:51.152Z,100344.91
2022-07-31T01:34:29.446Z,100341.59
2022-07-31T01:37:01.913Z,100341.59
2022-07-31T01:39:34.314Z,100342.11
2022-07-31T01:42:06.990Z,100331.43
2022-07-31T01:44:39.038Z,100334.98
2022-07-31T01:47:09.294Z,100328.72
2022-07-31T01:49:41.274Z,100328.72
2022-07-31T01:52:12.996Z,100338.25
2022-07-31T01:54:43.118Z,100337.53
2022-07-31T01:57:14.361Z,100333.62
2022-07-31T01:59:45.459Z,100320.91
2022-07-31T02:02:17.155Z,100325.14
2022-07-31T02:04:47.739Z,100325.14
2022-07-31T02:07:18.714Z,100323.06
2022-07-31T02:09:53.696Z,100323.20
2022-07-31T02:12:33.429Z,100318.56
2022-07-31T02:14:53.348Z,100318.56
2022-07-31T02:17:22.889Z,100324.78
2022-07-31T02:19:59.710Z,100322.55
2022-07-31T02:22:26.190Z,100322.80
2022-07-31T02:24:56.628Z,100322.80
2022-07-31T02:27:53.741Z,100319.34
2022-07-31T02:30:01.923Z,100320.66
2022-07-31T02:32:33.449Z,100319.58
2022-07-31T02:35:04.549Z,100324.83
2022-07-31T02:37:36.214Z,100321.23
2022-07-31T02:40:07.941Z,100316.62
2022-07-31T02:42:38.293Z,100316.62
2022-07-31T02:45:10.015Z,100318.55
2022-07-31T02:47:40.088Z,100326.18
2022-07-31T02:50:11.784Z,100324.72
2022-07-31T02:52:41.212Z,100326.73
2022-07-31T02:55:11.753Z,100321.89
2022-07-31T02:57:44.364Z,100321.89
2022-07-31T03:00:23.882Z,100329.13
2022-07-31T03:02:54.476Z,100330.31
2022-07-31T03:05:24.083Z,100336.74
2022-07-31T03:07:53.699Z,100335.72
2022-07-31T03:10:22.933Z,100332.34
2022-07-31T03:12:54.616Z,100332.34
2022-07-31T03:15:26.867Z,100334.42
2022-07-31T03:17:56.978Z,100328.25
2022-07-31T03:20:29.882Z,100328.25
2022-07-31T03:23:00.596Z,100333.67
2022-07-31T03:25:30.295Z,100339.32
2022-07-31T03:28:00.426Z,100335.67
2022-07-31T03:30:29.647Z,100331.11
2022-07-31T03:33:01.085Z,100331.11
2022-07-31T03:35:30.628Z,100340.20
2022-07-31T03:37:59.813Z,100331.13
2022-07-31T03:40:29.007Z,100331.13
2022-07-31T03:42:59.206Z,100335.73
2022-07-31T03:45:29.220Z,100336.63
2022-07-31T03:47:58.687Z,100337.12
2022-07-31T03:50:28.613Z,100337.12
2022-07-31T03:52:58.933Z,100339.05
2022-07-31T03:55:28.952Z,100341.22
2022-07-31T03:57:58.695Z,100330.38
2022-07-31T04:00:28.684Z,100339.20
2022-07-31T04:02:59.425Z,100329.77
2022-07-31T04:05:28.887Z,100336.17
2022-07-31T04:07:59.651Z,100342.14
2022-07-31T04:10:29.082Z,100333.41
2022-07-31T04:12:58.400Z,100333.41
2022-07-31T04:15:27.771Z,100329.73
2022-07-31T04:17:57.089Z,100324.64
2022-07-31T04:20:26.282Z,100320.34
2022-07-31T04:22:55.893Z,100328.17
2022-07-31T04:25:25.192Z,100319.08
2022-07-31T04:27:54.388Z,100319.08
2022-07-31T04:30:23.695Z,100325.98
2022-07-31T04:32:52.913Z,100318.31
2022-07-31T04:35:22.543Z,100318.31
2022-07-31T04:37:51.691Z,100313.55
2022-07-31T04:40:20.930Z,100318.48
2022-07-31T04:42:50.099Z,100320.20
2022-07-31T04:45:19.452Z,100309.90
2022-07-31T04:47:48.589Z,100314.91
2022-07-31T04:50:17.808Z,100307.50
2022-07-31T04:52:47.029Z,100307.50
2022-07-31T04:55:16.181Z,100314.56
2022-07-31T04:57:45.400Z,100317.34
2022-07-31T05:00:15.466Z,100315.17
2022-07-31T05:02:44.596Z,100314.70
2022-07-31T05:05:13.792Z,100314.70
2022-07-31T05:07:42.886Z,100317.51
2022-07-31T05:10:14.338Z,100306.43
2022-07-31T05:12:43.563Z,100311.17
2022-07-31T05:15:14.477Z,100319.18
2022-07-31T05:17:43.825Z,100312.00
2022-07-31T05:20:13.559Z,100319.45
2022-07-31T05:22:42.924Z,100313.38
2022-07-31T05:25:12.089Z,100314.60
2022-07-31T05:27:41.473Z,100314.70
2022-07-31T05:30:11.877Z,100306.95
2022-07-31T05:32:41.139Z,100306.95
2022-07-31T05:35:10.838Z,100307.32
2022-07-31T05:37:40.026Z,100312.00
2022-07-31T05:40:10.001Z,100312.34
2022-07-31T05:42:39.261Z,100306.80
2022-07-31T05:45:09.077Z,100303.41
2022-07-31T05:47:39.797Z,100307.69
2022-07-31T05:50:09.870Z,100311.72
2022-07-31T05:52:39.231Z,100305.89
2022-07-31T05:55:11.449Z,100306.70
2022-07-31T05:57:40.590Z,100305.44
2022-07-31T06:00:11.118Z,100301.72
2022-07-31T06:02:40.609Z,100301.13
2022-07-31T06:05:10.627Z,100299.13
2022-07-31T06:07:39.834Z,100304.48
2022-07-31T06:10:11.276Z,100303.14
2022-07-31T06:12:40.479Z,100298.84
2022-07-31T06:15:10.460Z,100301.61
2022-07-31T06:17:44.951Z,100301.61
2022-07-31T06:20:14.930Z,100293.06
2022-07-31T06:22:44.227Z,100284.35
2022-07-31T06:25:14.947Z,100293.91
2022-07-31T06:27:49.909Z,100281.58
2022-07-31T06:30:16.084Z,100288.14
2022-07-31T06:32:45.215Z,100286.84
2022-07-31T06:35:15.056Z,100285.23
2022-07-31T06:37:44.125Z,100280.05
2022-07-31T06:40:14.783Z,100269.96
2022-07-31T06:42:45.512Z,100276.53
2022-07-31T06:45:25.221Z,100277.45
2022-07-31T06:47:46.446Z,100263.91
2022-07-31T06:50:16.054Z,100263.79
2022-07-31T06:52:45.321Z,100268.83
2022-07-31T06:55:14.757Z,100258.31
2022-07-31T06:57:43.956Z,100255.95
2022-07-31T07:00:15.220Z,100244.27
2022-07-31T07:02:44.947Z,100251.41
2022-07-31T07:05:14.727Z,100247.02
2022-07-31T07:07:43.922Z,100238.81
2022-07-31T07:10:13.033Z,100227.91
2022-07-31T07:12:42.242Z,100227.91
2022-07-31T07:15:12.663Z,100241.83
2022-07-31T07:17:42.352Z,100241.83
2022-07-31T07:20:12.066Z,100243.65
2022-07-31T07:22:41.264Z,100234.52
2022-07-31T07:25:10.495Z,100234.52
2022-07-31T07:27:40.481Z,100229.30
2022-07-31T07:30:11.342Z,100228.09
2022-07-31T07:32:40.536Z,100231.37
2022-07-31T07:35:11.559Z,100233.92
2022-07-31T07:37:43.511Z,100224.91
2022-07-31T07:40:13.255Z,100227.84
2022-07-31T07:42:42.628Z,100227.84
2022-07-31T07:45:12.515Z,100236.97
2022-07-31T07:48:02.343Z,100245.25
2022-07-31T07:50:15.959Z,100234.45
2022-07-31T07:52:45.670Z,100227.84
2022-07-31T07:55:15.801Z,100225.70
2022-07-31T07:57:46.709Z,100225.70
2022-07-31T08:00:16.555Z,100224.83
2022-07-31T08:03:02.884Z,100217.02
2022-07-31T08:05:18.674Z,100216.48
2022-07-31T08:07:47.815Z,100219.57
2022-07-31T08:10:18.663Z,100213.55
2022-07-31T08:12:48.063Z,100205.97
2022-07-31T08:15:17.205Z,100210.28
2022-07-31T08:17:47.256Z,100210.28
2022-07-31T08:20:16.486Z,100216.09
2022-07-31T08:22:45.565Z,100199.77
2022-07-31T08:25:15.158Z,100213.20
2022-07-31T08:27:44.573Z,100198.84
2022-07-31T08:30:15.816Z,100198.84
2022-07-31T08:32:44.914Z,100191.45
2022-07-31T08:35:14.010Z,100191.45
2022-07-31T08:37:51.849Z,100204.41
2022-07-31T08:40:14.964Z,100186.94
2022-07-31T08:42:45.559Z,100187.78
2022-07-31T08:45:15.433Z,100187.78
2022-07-31T08:47:48.237Z,100197.31
2022-07-31T08:50:18.331Z,100181.72
2022-07-31T08:52:49.031Z,100179.34
2022-07-31T08:55:54.856Z,100175.63
2022-07-31T08:57:49.599Z,100168.06
2022-07-31T09:00:20.090Z,100175.00
2022-07-31T09:02:49.221Z,100175.00
2022-07-31T09:05:19.904Z,100180.05
2022-07-31T09:07:50.092Z,100171.27
2022-07-31T09:10:28.232Z,100163.86
2022-07-31T09:12:58.251Z,100163.02
2022-07-31T09:15:31.703Z,100163.02
2022-07-31T09:18:00.954Z,100164.63
2022-07-31T09:20:32.075Z,100156.95
2022-07-31T09:23:09.371Z,100154.45
2022-07-31T09:25:39.175Z,100147.50
2022-07-31T09:28:09.099Z,100156.02
2022-07-31T09:30:56.323Z,100149.59
2022-07-31T09:33:17.436Z,100149.59
2022-07-31T09:35:52.286Z,100143.98
2022-07-31T09:38:23.340Z,100143.98
2022-07-31T09:40:55.247Z,100141.94
2022-07-31T09:43:25.794Z,100141.94
2022-07-31T09:46:00.929Z,100145.16
2022-07-31T09:48:31.463Z,100133.83
2022-07-31T09:51:07.163Z,100132.52
2022-07-31T09:53:47.786Z,100130.37
2022-07-31T09:56:17.310Z,100132.55
2022-07-31T09:58:46.682Z,100124.14
2022-07-31T10:01:16.316Z,100134.29
2022-07-31T10:03:48.387Z,100128.47
2022-07-31T10:06:17.646Z,100128.47
2022-07-31T10:08:47.583Z,100126.30
2022-07-31T10:11:19.556Z,100126.30
2022-07-31T10:13:51.042Z,100122.67
2022-07-31T10:16:22.946Z,100122.63
2022-07-31T10:18:54.966Z,100121.00
2022-07-31T10:21:26.939Z,100112.88
2022-07-31T10:23:58.290Z,100102.86
2022-07-31T10:26:50.604Z,100102.86
2022-07-31T10:28:59.609Z,100103.36
2022-07-31T10:31:30.711Z,100094.42
2022-07-31T10:34:00.866Z,100090.29
2022-07-31T10:36:32.857Z,100090.29
2022-07-31T10:39:13.184Z,100085.52
2022-07-31T10:42:06.743Z,100076.93
2022-07-31T10:44:41.528Z,100076.93
2022-07-31T10:47:18.048Z,100081.50
2022-07-31T10:49:49.773Z,100081.50
2022-07-31T10:52:33.819Z,100081.63
2022-07-31T10:55:03.406Z,100087.02
2022-07-31T10:57:34.857Z,100075.46
2022-07-31T11:00:20.943Z,100079.21
2022-07-31T11:02:50.309Z,100068.79
2022-07-31T11:05:23.306Z,100069.88
2022-07-31T11:08:04.317Z,100069.88
2022-07-31T11:10:34.354Z,100065.98
2022-07-31T11:13:13.895Z,100065.34
2022-07-31T11:15:43.165Z,100065.34
2022-07-31T11:18:26.335Z,100065.30
2022-07-31T11:20:50.907Z,100063.05
2022-07-31T11:23:20.249Z,100059.27
2022-07-31T11:25:49.386Z,100058.26
2022-07-31T11:28:22.600Z,100051.78
2022-07-31T11:30:53.746Z,100058.63
2022-07-31T11:33:44.231Z,100051.48
2022-07-31T11:36:17.108Z,100051.48
2022-07-31T11:38:51.158Z,100053.87
2022-07-31T11:41:22.906Z,100048.39
2022-07-31T11:43:54.903Z,100044.95
2022-07-31T11:46:30.119Z,100047.88
2022-07-31T11:49:00.455Z,100043.82
2022-07-31T11:51:31.392Z,100042.17
2022-07-31T11:54:00.576Z,100037.06
2022-07-31T11:56:29.966Z,100037.23
2022-07-31T11:58:59.768Z,100037.23
2022-07-31T12:01:30.702Z,100032.83
2022-07-31T12:04:08.980Z,100032.83
2022-07-31T12:06:34.864Z,100030.14
2022-07-31T12:09:02.082Z,100026.92
2022-07-31T12:11:31.408Z,100026.77
2022-07-31T12:14:00.676Z,100026.77
2022-07-31T12:16:31.312Z,100026.19
2022-07-31T12:19:00.407Z,100025.58
2022-07-31T12:21:37.556Z,100019.14
2022-07-31T12:24:14.861Z,100013.41
2022-07-31T12:26:52.683Z,100010.58
2022-07-31T12:29:23.716Z,100010.58
2022-07-31T12:31:54.981Z,100009.05
2022-07-31T12:34:35.951Z,100013.81
2022-07-31T12:37:08.310Z,100009.25
2022-07-31T12:39:53.791Z,99998.04
2022-07-31T12:42:30.567Z,99994.55
2022-07-31T12:44:59.261Z,99994.55
2022-07-31T12:47:33.569Z,100000.37
2022-07-31T12:50:04.753Z,99994.72
2022-07-31T12:52:35.243Z,99991.30
2022-07-31T12:55:04.920Z,99989.88
2022-07-31T12:57:34.051Z,99981.97
2022-07-31T13:00:04.416Z,99981.97
2022-07-31T13:02:34.764Z,99977.72
2022-07-31T13:05:04.820Z,99968.44
2022-07-31T13:07:34.022Z,99968.44
2022-07-31T13:10:20.900Z,99963.77
2022-07-31T13:12:34.055Z,99963.77
2022-07-31T13:15:03.607Z,99961.73
2022-07-31T13:17:32.752Z,99966.76
2022-07-31T13:20:02.262Z,99957.95
2022-07-31T13:22:31.390Z,99965.46
2022-07-31T13:25:01.744Z,99965.46
2022-07-31T13:27:31.122Z,99965.27
2022-07-31T13:30:00.337Z,99950.90
2022-07-31T13:32:32.089Z,99948.76
2022-07-31T13:35:26.590Z,99948.76
2022-07-31T13:37:35.433Z,99946.81
2022-07-31T13:40:06.208Z,99942.70
2022-07-31T13:42:37.485Z,99932.86
2022-07-31T13:45:08.694Z,99932.86
2022-07-31T13:47:50.705Z,99932.66
2022-07-31T13:50:09.169Z,99924.44
2022-07-31T13:52:38.228Z,99924.44
2022-07-31T13:55:10.155Z,99923.68
2022-07-31T13:57:39.285Z,99923.68
2022-07-31T14:00:09.267Z,99913.36
2022-07-31T14:02:41.564Z,99913.36
2022-07-31T14:05:11.295Z,99917.33
2022-07-31T14:07:48.485Z,99911.19
2022-07-31T14:10:17.134Z,99910.16
2022-07-31T14:12:46.820Z,99901.48
2022-07-31T14:15:17.701Z,99901.48
2022-07-31T14:17:47.901Z,99895.58
2022-07-31T14:20:17.332Z,99894.34
2022-07-31T14:22:47.433Z,99894.34
2022-07-31T14:25:17.250Z,99894.06
2022-07-31T14:27:46.564Z,99885.84
2022-07-31T14:30:19.773Z,99885.84
2022-07-31T14:32:48.032Z,99882.22
2022-07-31T14:35:17.430Z,99880.21
2022-07-31T14:37:48.260Z,99880.21
2022-07-31T14:40:17.926Z,99890.43
2022-07-31T14:42:48.381Z,99876.59
2022-07-31T14:45:18.724Z,99882.34
2022-07-31T14:47:48.084Z,99877.83
2022-07-31T14:50:19.736Z,99875.98
2022-07-31T14:52:48.168Z,99875.98
2022-07-31T14:55:17.326Z,99877.16
2022-07-31T14:57:46.659Z,99869.33
2022-07-31T15:00:16.877Z,99865.88
2022-07-31T15:02:48.188Z,99871.98
2022-07-31T15:06:37.711Z,99866.53
2022-07-31T15:07:49.153Z,99869.03
2022-07-31T15:10:18.646Z,99868.50
2022-07-31T15:12:47.672Z,99868.50
2022-07-31T15:15:16.995Z,99863.55
2022-07-31T15:17:46.085Z,99860.92
2022-07-31T15:20:15.994Z,99856.73
2022-07-31T15:22:46.077Z,99860.90
2022-07-31T15:25:15.232Z,99860.90
2022-07-31T15:27:45.614Z,99855.97
2022-07-31T15:30:16.066Z,99858.53
2022-07-31T15:32:45.221Z,99858.53
2022-07-31T15:35:16.458Z,99852.91
2022-07-31T15:37:45.819Z,99852.91
2022-07-31T15:40:17.214Z,99851.05
2022-07-31T15:42:47.835Z,99852.21
2022-07-31T15:45:19.106Z,99860.70
2022-07-31T15:47:49.306Z,99853.89
2022-07-31T15:50:20.594Z,99856.16
2022-07-31T15:52:52.012Z,99856.16
2022-07-31T15:55:21.157Z,99858.42
2022-07-31T15:57:50.262Z,99853.37
2022-07-31T16:00:19.826Z,99852.44
2022-07-31T16:02:49.397Z,99852.44
2022-07-31T16:05:35.880Z,99848.63
2022-07-31T16:08:31.379Z,99851.78
2022-07-31T16:10:21.801Z,99851.78
2022-07-31T16:12:51.086Z,99846.65
2022-07-31T16:15:20.519Z,99846.65
2022-07-31T16:17:49.681Z,99854.38
2022-07-31T16:20:26.379Z,99851.33
2022-07-31T16:22:57.557Z,99853.53
2022-07-31T16:25:27.761Z,99853.53
2022-07-31T16:27:57.334Z,99855.19
2022-07-31T16:30:27.677Z,99852.88
2022-07-31T16:32:56.855Z,99854.14
2022-07-31T16:35:27.593Z,99854.28
2022-07-31T16:37:57.926Z,99854.28
2022-07-31T16:40:31.854Z,99853.47
2022-07-31T16:43:47.276Z,99852.83
2022-07-31T16:45:36.254Z,99859.81
2022-07-31T16:48:06.084Z,99859.81
2022-07-31T16:50:36.397Z,99856.34
2022-07-31T16:53:05.541Z,99855.73
2022-07-31T16:56:00.149Z,99860.30
2022-07-31T16:58:07.670Z,99860.30
2022-07-31T17:00:36.926Z,99862.59
2022-07-31T17:03:06.007Z,99862.59
2022-07-31T17:05:35.244Z,99865.77
2022-07-31T17:08:04.463Z,99873.89
2022-07-31T17:10:33.660Z,99874.08
2022-07-31T17:13:03.004Z,99881.36
2022-07-31T17:15:33.037Z,99882.89
2022-07-31T17:18:02.388Z,99882.48
2022-07-31T17:20:31.484Z,99885.41
2022-07-31T17:23:03.394Z,99885.41
2022-07-31T17:25:33.948Z,99891.08
2022-07-31T17:28:03.091Z,99889.50
2022-07-31T17:30:35.034Z,99889.66
2022-07-31T17:33:04.125Z,99892.73
2022-07-31T17:35:34.561Z,99893.55
2022-07-31T17:38:03.745Z,99898.79
2022-07-31T17:40:43.586Z,99898.79
2022-07-31T17:43:05.448Z,99889.88
2022-07-31T17:45:59.297Z,99889.88
2022-07-31T17:48:08.519Z,99890.84
2022-07-31T17:50:37.866Z,99892.28
2022-07-31T17:53:07.157Z,99892.28
2022-07-31T17:55:37.936Z,99900.39
2022-07-31T17:58:07.682Z,99900.46
2022-07-31T18:00:37.114Z,99905.66
2022-07-31T18:03:06.279Z,99905.66
2022-07-31T18:05:35.364Z,99905.81
2022-07-31T18:08:04.632Z,99910.92
2022-07-31T18:10:53.541Z,99913.69
2022-07-31T18:13:04.910Z,99915.38
2022-07-31T18:15:34.733Z,99912.42
2022-07-31T18:18:05.249Z,99903.58
2022-07-31T18:20:34.829Z,99905.81
2022-07-31T18:23:03.974Z,99905.81
2022-07-31T18:25:33.566Z,99901.89
2022-07-31T18:28:02.761Z,99909.73
2022-07-31T18:30:34.758Z,99915.97
2022-07-31T18:33:02.792Z,99917.07
2022-07-31T18:35:31.889Z,99917.07
2022-07-31T18:38:00.984Z,99922.11
2022-07-31T18:40:32.657Z,99926.91
2022-07-31T18:43:01.894Z,99918.48
2022-07-31T18:45:31.042Z,99918.48
2022-07-31T18:48:00.235Z,99927.41
2022-07-31T18:51:00.843Z,99922.63
2022-07-31T18:53:00.370Z,99923.58
2022-07-31T18:55:29.569Z,99923.58
2022-07-31T18:57:59.509Z,99922.95
2022-07-31T19:00:28.846Z,99919.86
2022-07-31T19:02:58.216Z,99928.92
2022-07-31T19:05:28.072Z,99918.03
2022-07-31T19:07:57.221Z,99918.03
2022-07-31T19:10:29.412Z,99916.41
2022-07-31T19:12:57.259Z,99910.95
2022-07-31T19:15:26.559Z,99909.13
2022-07-31T19:17:58.611Z,99909.13
2022-07-31T19:20:56.279Z,99909.55
2022-07-31T19:22:59.350Z,99899.12
2022-07-31T19:25:28.559Z,99899.88
2022-07-31T19:27:57.643Z,99894.19
2022-07-31T19:30:29.528Z,99897.56
2022-07-31T19:32:58.707Z,99894.07
2022-07-31T19:35:28.007Z,99888.39
2022-07-31T19:38:01.929Z,99888.63
2022-07-31T19:40:32.211Z,99890.40
2022-07-31T19:43:02.401Z,99895.73
2022-07-31T19:45:32.697Z,99901.90
2022-07-31T19:48:02.498Z,99898.55
2022-07-31T19:50:31.765Z,99897.69
2022-07-31T19:53:00.895Z,99897.69
2022-07-31T19:55:30.191Z,99901.23
2022-07-31T19:58:01.058Z,99906.88
2022-07-31T20:00:30.162Z,99906.88
2022-07-31T20:02:59.382Z,99904.50
2022-07-31T20:05:28.636Z,99901.11
2022-07-31T20:07:57.820Z,99901.22
2022-07-31T20:10:27.175Z,99901.70
2022-07-31T20:12:56.317Z,99901.70
2022-07-31T20:15:25.441Z,99908.08
2022-07-31T20:17:54.535Z,99909.95
2022-07-31T20:20:23.706Z,99916.05
2022-07-31T20:22:52.825Z,99914.44
2022-07-31T20:25:21.899Z,99914.44
2022-07-31T20:27:51.569Z,99927.34
2022-07-31T20:30:22.151Z,99932.87
2022-07-31T20:32:53.087Z,99936.97
2022-07-31T20:35:33.051Z,99946.41
2022-07-31T20:37:57.749Z,99930.48
2022-07-31T20:40:29.094Z,99904.37
2022-07-31T20:42:58.242Z,99902.33
2022-07-31T20:45:28.336Z,99897.55
2022-07-31T20:48:00.464Z,99895.55
2022-07-31T20:50:29.722Z,99893.10
2022-07-31T20:52:58.757Z,99894.61
2022-07-31T20:55:27.887Z,99888.65
2022-07-31T20:57:57.000Z,99882.97
2022-07-31T21:00:26.342Z,99882.97
2022-07-31T21:02:56.809Z,99875.02
2022-07-31T21:05:27.501Z,99876.41
2022-07-31T21:07:58.365Z,99867.70
2022-07-31T21:10:29.650Z,99874.73
2022-07-31T21:12:59.116Z,99866.02
2022-07-31T21:15:42.781Z,99866.02
2022-07-31T21:17:59.034Z,99869.60
2022-07-31T21:20:48.234Z,99880.19
2022-07-31T21:23:00.388Z,99880.74
2022-07-31T21:25:31.701Z,99880.74
2022-07-31T21:28:01.690Z,99879.48
2022-07-31T21:30:30.924Z,99867.77
2022-07-31T21:33:00.198Z,99871.93
2022-07-31T21:35:36.184Z,99863.73
2022-07-31T21:38:00.455Z,99863.73
2022-07-31T21:40:30.099Z,99865.27
2022-07-31T21:42:59.462Z,99865.47
2022-07-31T21:45:33.076Z,99863.19
2022-07-31T21:48:02.128Z,99859.69
2022-07-31T21:50:31.323Z,99850.92
2022-07-31T21:53:01.568Z,99850.92
2022-07-31T21:55:30.811Z,99851.31
2022-07-31T21:58:00.149Z,99851.31
2022-07-31T22:00:29.925Z,99853.14
2022-07-31T22:02:59.150Z,99852.25
2022-07-31T22:05:45.225Z,99852.25
2022-07-31T22:08:15.946Z,99859.38
2022-07-31T22:10:45.109Z,99851.03
2022-07-31T22:13:15.623Z,99842.75
2022-07-31T22:15:57.056Z,99842.75
2022-07-31T22:18:16.019Z,99846.63
2022-07-31T22:20:45.738Z,99842.04
2022-07-31T22:23:15.132Z,99839.74
2022-07-31T22:25:46.721Z,99839.74
2022-07-31T22:28:16.871Z,99838.08
2022-07-31T22:30:46.820Z,99835.99
2022-07-31T22:33:16.126Z,99833.53
2022-07-31T22:35:58.138Z,99825.40
2022-07-31T22:38:17.531Z,99825.40
2022-07-31T22:40:46.535Z,99829.97
2022-07-31T22:44:10.750Z,99832.67
2022-07-31T22:45:47.440Z,99831.08
2022-07-31T22:48:19.303Z,99830.33
2022-07-31T22:50:49.239Z,99834.44
2022-07-31T22:53:18.376Z,99836.35
2022-07-31T22:55:47.722Z,99829.39
2022-07-31T22:58:16.925Z,99829.39
2022-07-31T23:00:48.054Z,99829.58
2022-07-31T23:03:17.649Z,99825.59
2022-07-31T23:06:13.124Z,99832.55
2022-07-31T23:08:19.537Z,99836.30
2022-07-31T23:10:48.835Z,99834.68
2022-07-31T23:13:17.948Z,99834.68
2022-07-31T23:15:47.133Z,99837.25
2022-07-31T23:18:16.328Z,99838.95
2022-07-31T23:20:45.530Z,99847.39
2022-07-31T23:23:14.978Z,99849.20
2022-07-31T23:25:44.232Z,99849.20
2022-07-31T23:28:13.431Z,99849.52
2022-07-31T23:30:42.747Z,99849.52
2022-07-31T23:33:12.752Z,99850.56
2022-07-31T23:35:41.947Z,99852.97
2022-07-31T23:38:11.040Z,99854.35
2022-07-31T23:40:40.584Z,99854.35
2022-07-31T23:43:09.847Z,99844.27
2022-07-31T23:45:38.950Z,99844.27
2022-07-31T23:48:09.882Z,99847.91
2022-07-31T23:50:40.639Z,99852.20
2022-07-31T23:53:09.881Z,99848.19
2022-07-31T23:55:42.838Z,99845.56
2022-07-31T23:58:10.476Z,99845.56
